Time;durP1;ratioP1;P1;durP2;ratioP2;P2;SDS_P1;SDS_P2;PMS_P1;PMS_P2;Temp;Humidity;BMP_temperature;BMP_pressure;BME280_temperature;BME280_humidity;BME280_pressure;Samples;Min_cycle;Max_cycle;Signal;HPM_P1;HPM_P2
2021/12/21 00:01:56;;;;;;;5.60;3.10;;;3.10;99.90;;;;;;5076038;28;20185;-69
2021/12/21 00:04:21;;;;;;;5.40;3.40;;;3.00;99.90;;;;;;5094134;28;20643;-68
2021/12/21 00:06:47;;;;;;;6.27;3.97;;;3.00;99.90;;;;;;5094037;28;20241;-69
2021/12/21 00:09:12;;;;;;;7.27;3.67;;;3.00;99.90;;;;;;5075412;28;20270;-69
2021/12/21 00:11:38;;;;;;;6.73;3.50;;;3.00;99.90;;;;;;5075814;28;20215;-69
2021/12/21 00:14:17;;;;;;;6.37;3.30;;;3.10;99.90;;;;;;5075751;28;20174;-68
2021/12/21 00:17:00;;;;;;;7.20;3.13;;;3.10;99.90;;;;;;5075545;28;20293;-67
2021/12/21 00:22:39;;;;;;;4.83;2.90;;;3.00;99.90;;;;;;5093730;28;20170;-70
2021/12/21 00:24:58;;;;;;;7.83;3.00;;;3.00;99.90;;;;;;5093273;28;20201;-70
2021/12/21 00:27:24;;;;;;;7.00;3.10;;;3.00;99.90;;;;;;5093883;28;20529;-70
2021/12/21 00:29:49;;;;;;;8.83;3.93;;;3.00;99.90;;;;;;5075153;28;20189;-70
2021/12/21 00:32:15;;;;;;;6.97;3.30;;;3.00;99.90;;;;;;5075676;28;20173;-70
2021/12/21 00:34:40;;;;;;;6.50;3.33;;;3.10;99.90;;;;;;5075305;28;20200;-70
2021/12/21 00:37:06;;;;;;;5.10;3.30;;;3.10;99.90;;;;;;5075481;28;20163;-70
2021/12/21 00:39:32;;;;;;;4.83;3.33;;;3.10;99.90;;;;;;5074719;28;20166;-70
2021/12/21 00:41:58;;;;;;;5.40;3.10;;;3.10;99.90;;;;;;5093442;28;20636;-71
2021/12/21 00:44:23;;;;;;;5.97;3.17;;;3.10;99.90;;;;;;5093381;28;20518;-70
2021/12/21 00:46:49;;;;;;;10.13;3.57;;;3.00;99.90;;;;;;5075287;28;20185;-70
2021/12/21 00:49:16;;;;;;;6.73;3.20;;;3.00;99.90;;;;;;5092886;28;20257;-71
2021/12/21 00:51:46;;;;;;;9.43;3.17;;;3.00;99.90;;;;;;5093171;28;20196;-70
2021/12/21 00:54:12;;;;;;;7.43;3.53;;;3.00;99.90;;;;;;5074805;28;20168;-70
2021/12/21 00:56:38;;;;;;;4.97;2.73;;;3.10;99.90;;;;;;5074866;28;20257;-70
2021/12/21 00:59:05;;;;;;;5.30;2.90;;;3.10;99.90;;;;;;5074284;28;20180;-70
2021/12/21 01:01:31;;;;;;;14.70;3.37;;;3.00;99.90;;;;;;5074869;28;20163;-70
2021/12/21 01:03:58;;;;;;;5.57;3.00;;;3.00;99.90;;;;;;5074839;28;20213;-70
2021/12/21 01:06:40;;;;;;;7.47;3.10;;;3.00;99.90;;;;;;5074480;28;20198;-71
2021/12/21 01:14:28;;;;;;;5.47;2.70;;;3.00;99.90;;;;;;5092963;28;20179;-72
2021/12/21 01:17:07;;;;;;;6.77;3.63;;;3.00;99.90;;;;;;5092544;28;20223;-70
2021/12/21 01:23:17;;;;;;;5.53;3.57;;;2.90;99.90;;;;;;5026363;28;20180;-71
2021/12/21 01:25:40;;;;;;;6.47;3.23;;;2.90;99.90;;;;;;5091321;28;20681;-70
2021/12/21 01:28:15;;;;;;;6.77;3.47;;;2.90;99.90;;;;;;5073888;28;20178;-71
2021/12/21 01:30:54;;;;;;;10.20;4.40;;;2.90;99.90;;;;;;5073957;28;20171;-70
2021/12/21 01:33:39;;;;;;;5.13;3.37;;;2.90;99.90;;;;;;5074069;28;20194;-70
2021/12/21 01:36:14;;;;;;;8.13;4.13;;;2.80;99.90;;;;;;5091731;28;20237;-70
2021/12/21 01:39:10;;;;;;;5.80;3.60;;;2.80;99.90;;;;;;5073736;28;20209;-70
2021/12/21 01:41:37;;;;;;;8.13;3.67;;;2.70;99.90;;;;;;5084095;28;20188;-70
2021/12/21 01:51:57;;;;;;;8.90;4.67;;;2.80;99.90;;;;;;5092167;28;20186;-70
2021/12/21 01:54:23;;;;;;;9.40;4.40;;;2.90;99.90;;;;;;5073505;28;20178;-70
2021/12/21 01:56:48;;;;;;;11.60;5.00;;;2.90;99.90;;;;;;5073588;28;20204;-70
2021/12/21 01:59:14;;;;;;;9.87;4.87;;;2.90;99.90;;;;;;5070768;28;20168;-70
2021/12/21 02:01:41;;;;;;;7.37;4.60;;;2.90;99.90;;;;;;5070903;28;20181;-70
2021/12/21 02:04:08;;;;;;;7.50;4.20;;;2.90;99.90;;;;;;5089810;28;20163;-70
2021/12/21 02:06:34;;;;;;;9.40;4.60;;;2.90;99.90;;;;;;5073179;28;20336;-71
2021/12/21 02:08:59;;;;;;;9.50;4.73;;;3.00;99.90;;;;;;5090741;28;20258;-70
2021/12/21 02:11:25;;;;;;;11.47;4.47;;;3.00;99.90;;;;;;5073408;28;20176;-70
2021/12/21 02:13:52;;;;;;;8.53;4.70;;;2.90;99.90;;;;;;5073614;28;20602;-69
2021/12/21 02:16:34;;;;;;;8.43;4.67;;;3.00;99.90;;;;;;5090994;28;20592;-70
2021/12/21 02:19:08;;;;;;;10.50;4.60;;;3.00;99.90;;;;;;5091405;28;20682;-70
2021/12/21 02:21:41;;;;;;;9.20;4.90;;;3.00;99.90;;;;;;5073460;28;20173;-70
2021/12/21 02:24:12;;;;;;;9.63;5.00;;;3.00;99.90;;;;;;5073505;28;20190;-70
2021/12/21 02:26:44;;;;;;;11.23;5.93;;;3.00;99.90;;;;;;5073063;28;20199;-70
2021/12/21 02:29:43;;;;;;;8.70;5.43;;;3.10;99.90;;;;;;5073043;28;20186;-70
2021/12/21 02:32:02;;;;;;;11.43;6.20;;;3.10;99.90;;;;;;5087312;28;20195;-70
2021/12/21 02:34:28;;;;;;;14.83;6.23;;;3.10;99.90;;;;;;5073073;28;20177;-70
2021/12/21 02:36:55;;;;;;;17.10;7.33;;;3.10;99.90;;;;;;5073173;28;20556;-69
2021/12/21 02:39:22;;;;;;;13.43;6.80;;;3.10;99.90;;;;;;5072883;28;20183;-70
2021/12/21 02:41:48;;;;;;;13.40;7.57;;;3.10;99.90;;;;;;5073148;28;20215;-69
2021/12/21 02:44:15;;;;;;;15.27;6.97;;;3.10;99.90;;;;;;5073373;28;20259;-70
2021/12/21 02:46:42;;;;;;;10.40;6.30;;;3.10;99.90;;;;;;5091280;28;20628;-70
2021/12/21 02:49:09;;;;;;;13.33;7.13;;;3.00;99.90;;;;;;5072840;28;20173;-70
2021/12/21 02:51:38;;;;;;;12.13;7.23;;;3.00;99.90;;;;;;5072910;28;20280;-71
2021/12/21 02:54:04;;;;;;;14.37;7.03;;;2.90;99.90;;;;;;5091262;28;20644;-69
2021/12/21 02:56:29;;;;;;;14.10;6.50;;;2.90;99.90;;;;;;5072643;28;20247;-70
2021/12/21 02:58:55;;;;;;;13.20;7.20;;;2.90;99.90;;;;;;5091095;28;20248;-69
2021/12/21 03:01:21;;;;;;;12.23;7.03;;;2.90;99.90;;;;;;5072972;28;20173;-69
2021/12/21 03:03:46;;;;;;;10.10;6.70;;;2.90;99.90;;;;;;5073110;28;20540;-70
2021/12/21 03:06:33;;;;;;;12.10;6.80;;;2.80;99.90;;;;;;5072620;28;20202;-70
2021/12/21 03:08:58;;;;;;;12.03;6.80;;;2.80;99.90;;;;;;5090762;28;20266;-69
2021/12/21 03:11:48;;;;;;;15.70;7.30;;;2.90;99.90;;;;;;5072715;28;20265;-70
2021/12/21 03:14:15;;;;;;;10.63;7.17;;;2.80;99.90;;;;;;5072738;28;20173;-70
2021/12/21 03:16:41;;;;;;;11.57;7.30;;;2.80;99.90;;;;;;5072256;28;20301;-70
2021/12/21 03:19:09;;;;;;;11.63;6.70;;;2.80;99.90;;;;;;5072825;28;20228;-70
2021/12/21 03:21:36;;;;;;;14.83;7.60;;;2.80;99.90;;;;;;5094042;28;20214;-71
2021/12/21 03:24:02;;;;;;;11.73;7.57;;;2.90;99.90;;;;;;5074925;28;20223;-70
2021/12/21 03:26:28;;;;;;;14.43;7.63;;;2.90;99.90;;;;;;5095162;28;20702;-70
2021/12/21 03:28:54;;;;;;;13.30;8.03;;;2.90;99.90;;;;;;5094970;28;20178;-70
2021/12/21 03:31:20;;;;;;;12.10;7.23;;;2.70;99.90;;;;;;5076334;28;20269;-70
2021/12/21 03:33:46;;;;;;;16.63;9.03;;;2.80;99.90;;;;;;5076386;28;20176;-70
2021/12/21 03:36:12;;;;;;;16.33;9.63;;;2.80;99.90;;;;;;5094287;28;20609;-70
2021/12/21 03:38:40;;;;;;;15.27;8.50;;;2.90;99.90;;;;;;5094216;28;20195;-71
2021/12/21 03:41:14;;;;;;;18.00;9.00;;;2.90;99.90;;;;;;5075688;28;20172;-70
2021/12/21 03:43:39;;;;;;;13.27;7.80;;;2.70;99.90;;;;;;5076317;28;20173;-69
2021/12/21 03:46:09;;;;;;;18.83;9.23;;;2.70;99.90;;;;;;5076303;28;20209;-70
2021/12/21 03:48:36;;;;;;;16.17;8.73;;;2.60;99.90;;;;;;5075950;28;20639;-70
2021/12/21 03:51:03;;;;;;;13.23;8.73;;;2.70;99.90;;;;;;5075878;28;20265;-70
2021/12/21 03:53:28;;;;;;;12.33;7.87;;;2.60;99.90;;;;;;5081747;28;20591;-72
2021/12/21 03:56:09;;;;;;;14.53;8.70;;;2.60;99.90;;;;;;5075877;28;20214;-70
2021/12/21 03:58:35;;;;;;;16.83;8.80;;;2.70;99.90;;;;;;5075688;28;20178;-70
2021/12/21 04:01:00;;;;;;;16.97;8.90;;;2.70;99.90;;;;;;5093870;28;20168;-70
2021/12/21 04:03:26;;;;;;;16.43;8.77;;;2.70;99.90;;;;;;5075824;28;20180;-70
2021/12/21 04:05:51;;;;;;;16.20;7.93;;;2.80;99.90;;;;;;5075615;28;20243;-70
2021/12/21 04:08:17;;;;;;;14.43;8.73;;;2.80;99.90;;;;;;5093458;28;20198;-70
2021/12/21 04:10:42;;;;;;;21.27;9.53;;;2.80;99.90;;;;;;5075353;28;20267;-70
2021/12/21 04:13:10;;;;;;;19.87;8.70;;;2.80;99.90;;;;;;5075944;28;20220;-71
2021/12/21 04:15:43;;;;;;;20.43;9.33;;;2.80;99.90;;;;;;5076351;28;20261;-70
2021/12/21 04:18:13;;;;;;;17.37;8.43;;;2.80;99.90;;;;;;5075361;28;20179;-70
2021/12/21 04:20:39;;;;;;;16.60;9.60;;;2.70;99.90;;;;;;5093629;28;20287;-70
2021/12/21 04:23:06;;;;;;;18.90;8.57;;;2.70;99.90;;;;;;5075312;28;20175;-71
2021/12/21 04:25:32;;;;;;;19.63;9.83;;;2.80;99.90;;;;;;5075027;28;20206;-70
2021/12/21 04:27:57;;;;;;;15.13;9.20;;;2.80;99.90;;;;;;5075318;28;20256;-70
2021/12/21 04:30:23;;;;;;;15.73;8.77;;;2.80;99.90;;;;;;5093373;28;20213;-70
2021/12/21 04:32:49;;;;;;;15.67;9.30;;;2.80;99.90;;;;;;5074365;28;20169;-70
2021/12/21 04:35:19;;;;;;;20.27;10.37;;;2.90;99.90;;;;;;5074741;28;20208;-70
2021/12/21 04:37:55;;;;;;;17.57;9.47;;;2.90;99.90;;;;;;5074873;28;20169;-70
2021/12/21 04:40:25;;;;;;;17.87;10.07;;;2.80;99.90;;;;;;5093162;28;20165;-70
2021/12/21 04:42:51;;;;;;;17.17;10.00;;;2.80;99.90;;;;;;5075040;28;20171;-69
2021/12/21 04:45:16;;;;;;;19.03;10.57;;;2.80;99.90;;;;;;5074787;28;20192;-71
2021/12/21 04:47:42;;;;;;;18.60;9.80;;;2.80;99.90;;;;;;5074784;28;20197;-70
2021/12/21 04:50:08;;;;;;;19.63;10.30;;;2.80;99.90;;;;;;5074623;28;20168;-70
2021/12/21 04:52:33;;;;;;;14.57;9.23;;;2.90;99.90;;;;;;5092948;28;20174;-70
2021/12/21 04:54:59;;;;;;;18.80;11.03;;;2.80;99.90;;;;;;5092568;28;20266;-70
2021/12/21 04:57:25;;;;;;;17.80;10.77;;;2.90;99.90;;;;;;5074604;28;20181;-70
2021/12/21 04:59:50;;;;;;;18.43;10.07;;;2.90;99.90;;;;;;5074256;28;20666;-70
2021/12/21 05:02:16;;;;;;;24.33;11.37;;;2.90;99.90;;;;;;5074848;28;20678;-70
2021/12/21 05:04:41;;;;;;;17.83;9.87;;;2.90;99.90;;;;;;5074322;28;20171;-70
2021/12/21 05:07:07;;;;;;;19.47;9.93;;;2.90;99.90;;;;;;5074655;28;20163;-70
2021/12/21 05:09:41;;;;;;;19.90;10.77;;;3.00;99.90;;;;;;5074101;28;20172;-70
2021/12/21 05:12:10;;;;;;;19.70;9.83;;;2.80;99.90;;;;;;5074388;28;20163;-70
2021/12/21 05:14:35;;;;;;;15.10;9.90;;;2.80;99.90;;;;;;5073984;28;20170;-70
2021/12/21 05:17:01;;;;;;;19.33;9.83;;;2.80;99.90;;;;;;5092413;28;20549;-70
2021/12/21 05:19:26;;;;;;;19.60;10.67;;;2.80;99.90;;;;;;5092141;28;20163;-70
2021/12/21 05:21:52;;;;;;;18.60;10.30;;;2.90;99.90;;;;;;5074174;28;20170;-70
2021/12/21 05:24:18;;;;;;;20.30;11.47;;;2.90;99.90;;;;;;5065947;28;20636;-70
2021/12/21 05:26:44;;;;;;;17.53;11.23;;;2.90;99.90;;;;;;5073872;28;20280;-70
2021/12/21 05:29:09;;;;;;;23.03;11.80;;;2.90;99.90;;;;;;5073819;28;20229;-70
2021/12/21 05:31:35;;;;;;;17.97;10.60;;;2.90;99.90;;;;;;5073862;28;20175;-71
2021/12/21 05:34:00;;;;;;;25.00;11.77;;;2.80;99.90;;;;;;5073884;28;20170;-70
2021/12/21 05:36:26;;;;;;;22.17;11.83;;;2.90;99.90;;;;;;5073768;28;20673;-70
2021/12/21 05:38:57;;;;;;;18.20;11.33;;;2.80;99.90;;;;;;5073758;28;20169;-69
2021/12/21 05:41:46;;;;;;;21.77;10.90;;;2.80;99.90;;;;;;5091885;28;20173;-70
2021/12/21 05:44:08;;;;;;;18.87;10.77;;;2.80;99.90;;;;;;5091256;28;20181;-70
2021/12/21 05:46:33;;;;;;;18.67;11.47;;;2.80;99.90;;;;;;5073572;28;20188;-70
2021/12/21 05:48:59;;;;;;;22.20;11.77;;;2.80;99.90;;;;;;5073575;28;20175;-70
2021/12/21 05:51:24;;;;;;;22.67;11.73;;;2.90;99.90;;;;;;5073548;28;20182;-70
2021/12/21 05:53:50;;;;;;;21.20;11.60;;;2.80;99.90;;;;;;5073601;28;20177;-71
2021/12/21 05:56:16;;;;;;;19.37;11.10;;;2.80;99.90;;;;;;5073235;28;20309;-70
2021/12/21 05:58:42;;;;;;;23.77;12.13;;;2.80;99.90;;;;;;5091396;28;20681;-70
2021/12/21 06:01:08;;;;;;;23.73;11.93;;;2.80;99.90;;;;;;5073454;28;20272;-70
2021/12/21 06:03:33;;;;;;;21.53;12.13;;;2.80;99.90;;;;;;5091749;28;20646;-70
2021/12/21 06:05:59;;;;;;;21.07;11.07;;;2.80;99.90;;;;;;5073213;28;20280;-70
2021/12/21 06:08:25;;;;;;;19.27;11.20;;;2.70;99.90;;;;;;5091331;28;20164;-68
2021/12/21 06:10:53;;;;;;;24.40;12.10;;;2.80;99.90;;;;;;5073156;28;20172;-70
2021/12/21 06:22:45;;;;;;;26.03;12.77;;;2.90;99.90;;;;;;5091305;28;20172;-70
2021/12/21 06:26:10;;;;;;;22.47;12.83;;;2.80;99.90;;;;;;5091293;28;20593;-69
2021/12/21 06:28:36;;;;;;;24.07;12.33;;;2.90;99.90;;;;;;5073065;28;20177;-70
2021/12/21 06:31:02;;;;;;;26.23;14.10;;;2.70;99.90;;;;;;5073132;28;20267;-69
2021/12/21 06:33:28;;;;;;;28.00;13.13;;;2.80;99.90;;;;;;5091299;28;20584;-70
2021/12/21 06:35:54;;;;;;;30.03;12.70;;;2.90;99.90;;;;;;5090863;28;20207;-70
2021/12/21 06:38:20;;;;;;;23.03;12.90;;;2.80;99.90;;;;;;5072726;28;20201;-70
2021/12/21 06:40:46;;;;;;;23.70;13.13;;;2.80;99.90;;;;;;5072821;28;20654;-70
2021/12/21 06:43:14;;;;;;;19.97;11.53;;;2.90;99.90;;;;;;5073073;28;20174;-70
2021/12/21 06:53:42;;;;;;;25.60;11.60;;;2.80;99.90;;;;;;5091346;28;20217;-70
2021/12/21 06:56:09;;;;;;;27.37;12.00;;;2.90;99.90;;;;;;5074449;28;20662;-70
2021/12/21 06:58:35;;;;;;;23.83;12.13;;;2.90;99.90;;;;;;5094687;28;20172;-70
2021/12/21 07:01:01;;;;;;;21.07;12.00;;;2.80;99.90;;;;;;5094739;28;20165;-70
2021/12/21 07:03:27;;;;;;;28.00;12.37;;;2.80;99.90;;;;;;5076668;28;20215;-70
2021/12/21 07:05:53;;;;;;;21.80;11.77;;;2.80;99.90;;;;;;5076444;28;20202;-71
2021/12/21 07:08:27;;;;;;;25.63;12.40;;;2.90;99.90;;;;;;5076422;28;20812;-70
2021/12/21 07:11:21;;;;;;;23.07;11.73;;;2.90;99.90;;;;;;5076429;28;20174;-69
2021/12/21 07:19:09;;;;;;;21.47;12.03;;;2.70;99.90;;;;;;5094889;28;20219;-69
2021/12/21 07:21:35;;;;;;;26.40;11.53;;;2.60;99.90;;;;;;5076333;28;20167;-69
2021/12/21 07:24:01;;;;;;;28.33;12.20;;;2.60;99.90;;;;;;5076352;28;20700;-69
2021/12/21 07:26:26;;;;;;;26.97;13.00;;;2.70;99.90;;;;;;5094410;28;20540;-70
2021/12/21 07:28:53;;;;;;;29.20;13.50;;;2.80;99.90;;;;;;5094442;28;20177;-69
2021/12/21 07:31:18;;;;;;;26.70;12.30;;;2.80;99.90;;;;;;5076266;28;20173;-69
2021/12/21 07:33:44;;;;;;;22.50;12.23;;;2.80;99.90;;;;;;5076452;28;20173;-69
2021/12/21 07:36:09;;;;;;;30.40;12.50;;;2.80;99.90;;;;;;5076228;28;20202;-69
2021/12/21 07:38:35;;;;;;;28.20;12.70;;;2.80;99.90;;;;;;5075952;28;20253;-68
2021/12/21 07:41:01;;;;;;;26.23;11.90;;;2.80;99.90;;;;;;5075765;28;20311;-69
2021/12/21 07:43:28;;;;;;;25.83;12.50;;;2.90;99.90;;;;;;5076352;28;20297;-69
2021/12/21 07:45:54;;;;;;;22.20;10.33;;;2.90;99.90;;;;;;5075799;28;20197;-70
2021/12/21 07:48:20;;;;;;;22.33;10.70;;;2.80;99.90;;;;;;5075828;28;20178;-69
2021/12/21 07:50:47;;;;;;;22.83;10.53;;;2.90;99.90;;;;;;5076043;28;20166;-68
2021/12/21 07:53:15;;;;;;;24.53;11.07;;;2.90;99.90;;;;;;5094047;28;20248;-69
2021/12/21 07:55:40;;;;;;;23.17;10.73;;;2.90;99.90;;;;;;5075573;28;20201;-68
2021/12/21 07:58:06;;;;;;;23.03;10.80;;;2.90;99.90;;;;;;5093860;28;20267;-69
2021/12/21 08:00:31;;;;;;;23.27;11.77;;;2.90;99.90;;;;;;5093935;28;20169;-69
2021/12/21 08:02:57;;;;;;;22.17;9.50;;;2.80;99.90;;;;;;5075818;28;20182;-69
2021/12/21 08:05:24;;;;;;;18.90;9.70;;;2.80;99.90;;;;;;5075578;28;20653;-69
2021/12/21 08:07:55;;;;;;;23.07;10.67;;;2.90;99.90;;;;;;5092178;28;20174;-70
2021/12/21 08:10:40;;;;;;;22.00;12.50;;;2.90;99.90;;;;;;5075020;28;20240;-69
2021/12/21 08:13:06;;;;;;;20.40;10.67;;;2.90;99.90;;;;;;5075584;28;20259;-69
2021/12/21 08:15:32;;;;;;;19.57;10.27;;;2.90;99.90;;;;;;5075170;28;20312;-69
2021/12/21 08:17:57;;;;;;;18.33;8.83;;;2.90;99.90;;;;;;5093345;28;20602;-69
2021/12/21 08:20:23;;;;;;;19.83;10.27;;;2.80;99.90;;;;;;5093366;28;20190;-69
2021/12/21 08:22:48;;;;;;;18.77;9.60;;;2.90;99.90;;;;;;5075447;28;20210;-70
2021/12/21 08:25:14;;;;;;;18.40;9.27;;;3.00;99.90;;;;;;5093057;28;20215;-68
2021/12/21 08:27:40;;;;;;;19.37;9.57;;;3.00;99.90;;;;;;5093233;28;20215;-69
2021/12/21 08:30:07;;;;;;;18.70;9.07;;;3.00;99.90;;;;;;5074750;28;20235;-69
2021/12/21 08:32:32;;;;;;;18.43;9.63;;;3.00;99.90;;;;;;5093359;28;20674;-68
2021/12/21 08:34:58;;;;;;;21.60;9.87;;;3.00;99.90;;;;;;5074899;28;20195;-69
2021/12/21 08:37:23;;;;;;;24.27;12.00;;;2.90;99.90;;;;;;5074965;28;20166;-69
2021/12/21 08:39:49;;;;;;;18.87;9.90;;;3.00;99.90;;;;;;5074668;28;20176;-69
2021/12/21 08:42:16;;;;;;;17.00;9.67;;;3.10;99.90;;;;;;5074912;28;20163;-68
2021/12/21 08:44:45;;;;;;;20.87;9.10;;;3.00;99.90;;;;;;5074603;28;20255;-69
2021/12/21 08:47:11;;;;;;;15.83;8.70;;;3.10;99.90;;;;;;5092845;28;20215;-69
2021/12/21 08:49:37;;;;;;;20.20;8.87;;;3.10;99.90;;;;;;5092639;28;20171;-69
2021/12/21 08:52:03;;;;;;;13.20;8.70;;;3.10;99.90;;;;;;5074517;28;20176;-69
2021/12/21 08:54:28;;;;;;;14.87;9.20;;;3.20;99.90;;;;;;5074694;28;20183;-70
2021/12/21 08:56:54;;;;;;;17.50;9.27;;;3.20;99.90;;;;;;5074445;28;20335;-69
2021/12/21 08:59:19;;;;;;;16.37;8.87;;;3.20;99.90;;;;;;5074519;28;20166;-70
2021/12/21 09:01:46;;;;;;;16.97;8.83;;;3.30;99.90;;;;;;5074941;28;20172;-71
2021/12/21 09:04:15;;;;;;;15.43;8.80;;;3.30;99.90;;;;;;5092846;28;20191;-70
2021/12/21 09:06:40;;;;;;;19.43;9.80;;;3.30;99.90;;;;;;5074286;28;20191;-70
2021/12/21 09:09:06;;;;;;;19.20;9.23;;;3.30;99.90;;;;;;5074446;28;20553;-70
2021/12/21 09:11:32;;;;;;;26.77;11.50;;;3.40;99.90;;;;;;5092564;28;20510;-71
2021/12/21 09:13:57;;;;;;;16.03;9.93;;;3.40;99.90;;;;;;5092935;28;20167;-69
2021/12/21 09:16:23;;;;;;;19.77;9.30;;;3.50;99.90;;;;;;5074325;28;20704;-70
2021/12/21 09:18:48;;;;;;;22.47;10.23;;;3.50;99.90;;;;;;5073556;28;20209;-70
2021/12/21 09:21:14;;;;;;;25.57;11.70;;;3.50;99.90;;;;;;5074451;28;20181;-70
2021/12/21 09:23:41;;;;;;;26.93;12.27;;;3.50;99.90;;;;;;5074345;28;20249;-70
2021/12/21 09:26:06;;;;;;;26.00;11.63;;;3.40;99.90;;;;;;5073923;28;20197;-70
2021/12/21 09:28:32;;;;;;;22.83;10.87;;;3.20;99.90;;;;;;5074135;28;20538;-70
2021/12/21 09:30:58;;;;;;;38.03;18.00;;;3.30;99.90;;;;;;5074003;28;20223;-70
2021/12/21 09:33:23;;;;;;;31.07;14.77;;;3.30;99.90;;;;;;5074106;28;20175;-68
2021/12/21 09:35:51;;;;;;;19.93;10.70;;;3.20;99.90;;;;;;5091975;28;20211;-68
2021/12/21 09:38:17;;;;;;;17.63;10.43;;;3.20;99.90;;;;;;5091953;28;20723;-68
2021/12/21 09:40:42;;;;;;;21.97;10.63;;;3.30;99.90;;;;;;5092277;28;20175;-68
2021/12/21 09:43:10;;;;;;;21.30;11.40;;;3.40;99.90;;;;;;5092159;28;20178;-68
2021/12/21 09:45:36;;;;;;;20.90;10.20;;;3.50;99.90;;;;;;5073527;28;20197;-68
2021/12/21 09:48:02;;;;;;;23.17;11.30;;;3.40;99.90;;;;;;5073482;28;20211;-69
2021/12/21 09:50:27;;;;;;;22.70;12.37;;;3.50;99.90;;;;;;5073741;28;20212;-68
2021/12/21 09:52:54;;;;;;;20.90;10.53;;;3.50;99.90;;;;;;5092149;28;20211;-68
2021/12/21 09:55:20;;;;;;;20.30;11.13;;;3.30;99.90;;;;;;5073791;28;20574;-69
2021/12/21 09:57:48;;;;;;;20.70;11.63;;;3.30;99.90;;;;;;5091428;28;20523;-68
2021/12/21 10:00:22;;;;;;;22.07;11.70;;;3.40;99.90;;;;;;5056736;28;20218;-68
2021/12/21 10:02:48;;;;;;;23.47;11.40;;;3.50;99.90;;;;;;5091997;28;20155;-68
2021/12/21 10:05:19;;;;;;;24.07;12.93;;;3.50;99.90;;;;;;5073440;28;20639;-71
2021/12/21 10:07:59;;;;;;;23.20;13.33;;;3.50;99.90;;;;;;5091721;28;20638;-70
2021/12/21 10:10:25;;;;;;;23.53;11.93;;;3.50;99.90;;;;;;5073452;28;20184;-68
2021/12/21 10:12:51;;;;;;;20.37;11.57;;;3.20;99.90;;;;;;5091481;28;20192;-71
2021/12/21 10:15:24;;;;;;;21.37;11.53;;;3.10;99.90;;;;;;5105748;22;20217;-74
2021/12/21 10:17:57;;;;;;;24.30;12.33;;;3.20;99.90;;;;;;5020350;28;20756;-74
2021/12/21 10:20:37;;;;;;;19.10;11.33;;;3.10;99.90;;;;;;5036812;28;20164;-74
2021/12/21 10:23:27;;;;;;;22.33;12.53;;;3.10;99.90;;;;;;5054430;28;20558;-75
2021/12/21 10:25:56;;;;;;;21.30;12.43;;;3.10;99.90;;;;;;5054461;28;20692;-78
2021/12/21 10:28:44;;;;;;;25.27;13.37;;;3.10;99.90;;;;;;5053911;28;20181;-75
2021/12/21 10:31:29;;;;;;;25.37;14.00;;;2.90;99.90;;;;;;5053615;28;20192;-74
2021/12/21 10:33:57;;;;;;;25.43;13.70;;;3.00;99.90;;;;;;5034527;28;20181;-75
2021/12/21 10:36:25;;;;;;;22.97;13.83;;;3.10;99.90;;;;;;5052180;28;20216;-75
2021/12/21 10:38:57;;;;;;;24.67;13.43;;;3.10;99.90;;;;;;5035123;28;20177;-75
2021/12/21 10:41:41;;;;;;;25.90;13.37;;;3.10;99.90;;;;;;5035187;28;20177;-74
2021/12/21 10:44:13;;;;;;;21.33;11.80;;;3.10;99.90;;;;;;5039277;28;20167;-77
2021/12/21 10:46:44;;;;;;;19.47;11.73;;;3.20;99.90;;;;;;5042540;28;20521;-74
2021/12/21 10:49:14;;;;;;;23.67;12.80;;;3.10;99.90;;;;;;5039977;28;20275;-75
2021/12/21 10:51:54;;;;;;;26.90;13.37;;;3.10;99.90;;;;;;5034796;28;20255;-77
2021/12/21 10:54:30;;;;;;;24.07;12.27;;;3.10;99.90;;;;;;5035557;28;20185;-76
2021/12/21 10:57:10;;;;;;;23.67;13.40;;;3.20;99.90;;;;;;5034334;28;20204;-76
2021/12/21 10:59:42;;;;;;;26.10;13.53;;;3.20;99.90;;;;;;5035172;28;20199;-75
2021/12/21 11:02:10;;;;;;;22.03;13.37;;;3.20;99.90;;;;;;5035353;28;20177;-74
2021/12/21 11:04:41;;;;;;;25.67;13.93;;;3.30;99.90;;;;;;5035469;28;20216;-75
2021/12/21 11:07:32;;;;;;;22.60;12.03;;;3.40;99.90;;;;;;5034866;28;20206;-75
2021/12/21 11:10:15;;;;;;;16.97;11.00;;;3.40;99.90;;;;;;5033727;28;20179;-75
2021/12/21 11:13:02;;;;;;;21.87;10.83;;;3.40;99.90;;;;;;5053818;28;20183;-75
2021/12/21 11:15:55;;;;;;;21.97;11.93;;;3.30;99.90;;;;;;5053619;28;20220;-75
2021/12/21 11:18:22;;;;;;;27.83;13.23;;;3.00;99.90;;;;;;5035763;28;20214;-75
2021/12/21 11:20:52;;;;;;;25.50;12.10;;;3.10;99.90;;;;;;5053367;28;20204;-75
2021/12/21 11:23:20;;;;;;;29.03;13.03;;;3.30;99.90;;;;;;5035907;28;20599;-75
2021/12/21 11:25:53;;;;;;;18.63;11.43;;;3.30;99.90;;;;;;5036394;28;20206;-75
2021/12/21 11:28:27;;;;;;;18.20;10.60;;;3.30;99.90;;;;;;5056592;28;20259;-75
2021/12/21 11:30:58;;;;;;;20.47;10.03;;;3.40;99.90;;;;;;5054882;28;20173;-75
2021/12/21 11:33:25;;;;;;;17.53;10.20;;;3.40;99.90;;;;;;5038762;28;20182;-75
2021/12/21 11:38:38;;;;;;;16.80;10.10;;;3.40;99.90;;;;;;5051669;28;20190;-76
2021/12/21 11:41:04;;;;;;;18.53;10.50;;;3.50;99.90;;;;;;5034047;28;20649;-76
2021/12/21 11:43:40;;;;;;;17.33;10.97;;;3.50;99.90;;;;;;5036960;28;20201;-75
2021/12/21 11:46:11;;;;;;;17.43;10.90;;;3.50;99.90;;;;;;5036652;28;20193;-76
2021/12/21 11:48:54;;;;;;;19.03;10.33;;;3.50;99.90;;;;;;5054495;28;20248;-76
2021/12/21 11:51:24;;;;;;;18.20;10.10;;;3.40;99.90;;;;;;5036337;28;20190;-78
2021/12/21 11:53:50;;;;;;;17.63;10.37;;;3.40;99.90;;;;;;5036599;28;20181;-77
2021/12/21 11:56:22;;;;;;;19.60;11.10;;;3.40;99.90;;;;;;5053700;28;20209;-76
2021/12/21 11:58:50;;;;;;;23.03;11.83;;;3.40;99.90;;;;;;5036215;28;20168;-75
2021/12/21 12:01:24;;;;;;;20.00;11.53;;;3.30;99.90;;;;;;5036181;28;20198;-78
2021/12/21 12:04:08;;;;;;;19.20;10.93;;;3.30;99.90;;;;;;5054501;28;20186;-76
2021/12/21 12:06:49;;;;;;;20.33;11.07;;;3.20;99.90;;;;;;5036262;28;20198;-76
2021/12/21 12:09:30;;;;;;;16.77;10.70;;;3.10;99.90;;;;;;5053809;28;20197;-76
2021/12/21 12:12:11;;;;;;;19.77;10.70;;;3.10;99.90;;;;;;5053805;28;20169;-75
2021/12/21 12:14:38;;;;;;;20.70;11.43;;;3.00;99.90;;;;;;5036141;28;20171;-77
2021/12/21 12:17:11;;;;;;;27.70;13.90;;;3.10;99.90;;;;;;5053483;28;20235;-76
2021/12/21 12:19:38;;;;;;;22.07;13.07;;;3.10;99.90;;;;;;5035973;28;20169;-76
2021/12/21 12:22:15;;;;;;;21.57;13.67;;;3.10;99.90;;;;;;5037316;28;20183;-75
2021/12/21 12:24:46;;;;;;;25.83;14.00;;;3.20;99.90;;;;;;5035943;28;20170;-74
2021/12/21 12:27:16;;;;;;;23.83;14.63;;;3.30;99.90;;;;;;5035582;28;20191;-78
2021/12/21 12:29:52;;;;;;;25.70;13.70;;;3.20;99.90;;;;;;5035584;28;20176;-75
2021/12/21 12:32:36;;;;;;;21.23;12.87;;;3.20;99.90;;;;;;5053489;28;20166;-74
2021/12/21 12:35:17;;;;;;;20.10;11.17;;;3.20;99.90;;;;;;5035645;28;20176;-74
2021/12/21 12:37:58;;;;;;;16.33;9.87;;;3.20;99.90;;;;;;5052183;28;20626;-77
2021/12/21 12:40:37;;;;;;;15.93;9.63;;;3.10;99.90;;;;;;5035273;28;20186;-75
2021/12/21 12:43:08;;;;;;;19.50;11.43;;;3.10;99.90;;;;;;5035763;28;20170;-74
2021/12/21 12:45:42;;;;;;;16.50;10.97;;;3.10;99.90;;;;;;5052921;28;20294;-75
2021/12/21 12:48:20;;;;;;;19.57;11.10;;;3.10;99.90;;;;;;5034940;28;20173;-75
2021/12/21 12:50:47;;;;;;;20.53;12.40;;;3.20;99.90;;;;;;5035115;28;20183;-75
2021/12/21 12:53:13;;;;;;;24.53;14.00;;;3.20;99.90;;;;;;5034314;28;20801;-75
2021/12/21 12:55:48;;;;;;;23.83;14.43;;;3.00;99.90;;;;;;5034761;28;20205;-75
2021/12/21 12:58:19;;;;;;;21.57;13.00;;;3.10;99.90;;;;;;5052714;28;20166;-75
2021/12/21 13:00:45;;;;;;;20.37;13.63;;;3.10;99.90;;;;;;5035102;28;20186;-75
2021/12/21 13:03:12;;;;;;;21.37;13.30;;;2.90;99.90;;;;;;5034810;28;20169;-74
2021/12/21 13:05:52;;;;;;;23.90;13.53;;;2.90;99.90;;;;;;5035177;28;20192;-75
2021/12/21 13:08:21;;;;;;;23.17;13.77;;;2.90;99.90;;;;;;5034925;28;20263;-74
2021/12/21 13:10:53;;;;;;;24.70;14.20;;;2.80;99.90;;;;;;5034380;28;20174;-75
2021/12/21 13:13:20;;;;;;;19.13;12.53;;;2.90;99.90;;;;;;5052624;28;20172;-75
2021/12/21 13:15:49;;;;;;;26.13;13.33;;;2.80;99.90;;;;;;5052515;28;20207;-74
2021/12/21 13:18:19;;;;;;;24.23;13.63;;;2.90;99.90;;;;;;5034633;28;20203;-75
2021/12/21 13:20:48;;;;;;;23.57;13.87;;;2.80;99.90;;;;;;5034616;28;20176;-75
2021/12/21 13:23:29;;;;;;;22.17;13.37;;;2.70;99.90;;;;;;5034899;28;20528;-75
2021/12/21 13:26:09;;;;;;;25.27;13.07;;;2.70;99.90;;;;;;5034805;28;20280;-74
2021/12/21 13:28:53;;;;;;;21.53;12.87;;;2.80;99.90;;;;;;5034369;28;20183;-74
2021/12/21 13:31:22;;;;;;;22.10;11.13;;;2.80;99.90;;;;;;5035178;28;20163;-75
2021/12/21 13:33:54;;;;;;;18.23;9.43;;;2.90;99.90;;;;;;5035009;28;20169;-74
2021/12/21 13:36:41;;;;;;;19.13;10.60;;;2.80;99.90;;;;;;5035072;28;20295;-77
2021/12/21 13:39:26;;;;;;;19.43;10.60;;;2.80;99.90;;;;;;5052692;28;20691;-75
2021/12/21 13:41:53;;;;;;;21.43;9.63;;;2.50;99.90;;;;;;5034784;28;20167;-74